Time;durP1;ratioP1;P1;durP2;ratioP2;P2;SDS_P1;SDS_P2;PMS_P1;PMS_P2;Temp;Humidity;BMP_temperature;BMP_pressure;BME280_temperature;BME280_humidity;BME280_pressure;Samples;Min_cycle;Max_cycle;Signal;HPM_P1;HPM_P2
2022/12/25 00:01:21;;;;;;;3.08;2.30;;;;;;;14.20;53.48;93598.50;4954204;28;20079;-90
2022/12/25 00:03:46;;;;;;;2.35;1.88;;;;;;;14.19;53.68;93600.47;4933070;29;20075;-86
2022/12/25 00:06:12;;;;;;;2.42;2.10;;;;;;;14.19;53.92;93603.19;4952654;28;20507;-90
2022/12/25 00:08:38;;;;;;;2.72;1.90;;;;;;;14.21;54.01;93605.44;5000908;28;20062;-90
2022/12/25 00:11:05;;;;;;;3.88;2.00;;;;;;;14.21;53.97;93603.47;4948166;28;20071;-89
2022/12/25 00:13:30;;;;;;;3.92;2.28;;;;;;;14.20;53.44;93607.41;4951512;28;20046;-90
2022/12/25 00:15:55;;;;;;;3.10;1.80;;;;;;;14.22;53.67;93599.53;4952319;28;20062;-89
2022/12/25 00:18:21;;;;;;;2.67;2.25;;;;;;;14.23;53.97;93597.56;4951346;28;20497;-91
2022/12/25 00:21:00;;;;;;;2.45;1.75;;;;;;;14.24;53.83;93594.34;4949320;28;20043;-92
2022/12/25 00:23:26;;;;;;;2.03;1.70;;;;;;;14.21;53.48;93595.31;4941079;28;20064;-91
2022/12/25 00:25:52;;;;;;;4.55;2.28;;;;;;;14.24;53.60;93602.50;4952620;28;20496;-88
2022/12/25 00:28:17;;;;;;;3.40;1.83;;;;;;;14.22;54.00;93599.53;4949884;28;20043;-91
2022/12/25 00:30:43;;;;;;;3.97;2.17;;;;;;;14.20;53.88;93601.97;4970884;28;20043;-89
2022/12/25 00:33:08;;;;;;;2.83;2.00;;;;;;;14.22;53.78;93604.22;4951439;28;20040;-89
2022/12/25 00:35:33;;;;;;;2.47;1.75;;;;;;;14.24;53.96;93607.19;4955191;28;20039;-88
2022/12/25 00:37:59;;;;;;;3.15;2.10;;;;;;;14.21;53.86;93621.75;4939653;28;20078;-91
2022/12/25 00:40:24;;;;;;;3.50;2.63;;;;;;;14.20;53.79;93614.81;4970916;28;20042;-92
2022/12/25 00:42:49;;;;;;;4.20;2.03;;;;;;;14.20;53.77;93617.53;4954545;28;20047;-88
2022/12/25 00:45:15;;;;;;;2.83;1.80;;;;;;;14.20;53.97;93621.00;4952287;28;20055;-91
2022/12/25 00:47:40;;;;;;;2.75;1.95;;;;;;;14.20;53.90;93622.97;4937879;28;20050;-92
2022/12/25 00:50:06;;;;;;;1.90;1.70;;;;;;;14.18;53.53;93626.16;4947995;28;20043;-92
2022/12/25 00:52:32;;;;;;;2.58;1.90;;;;;;;14.20;54.12;93626.44;4935377;29;20039;-90
2022/12/25 00:54:57;;;;;;;2.80;1.90;;;;;;;14.23;53.77;93636.38;4967661;28;20504;-90
2022/12/25 00:57:22;;;;;;;4.00;2.38;;;;;;;14.22;53.40;93640.31;4953545;28;20087;-89
2022/12/25 00:59:48;;;;;;;2.63;1.73;;;;;;;14.18;53.78;93645.19;4970280;28;20043;-92
2022/12/25 01:02:22;;;;;;;3.63;1.73;;;;;;;14.17;53.35;93651.09;4935143;28;20039;-89
2022/12/25 01:04:48;;;;;;;2.80;1.73;;;;;;;14.23;53.69;93655.41;4981746;28;20473;-91
2022/12/25 01:07:15;;;;;;;2.58;2.05;;;;;;;14.21;53.70;93660.56;4954073;28;20397;-93
2022/12/25 01:12:25;;;;;;;2.78;2.15;;;;;;;14.20;53.57;93658.31;4950683;28;20098;-87
2022/12/25 01:14:50;;;;;;;2.75;2.22;;;;;;;14.18;53.58;93660.75;4997581;28;20046;-92
2022/12/25 01:17:16;;;;;;;1.85;1.60;;;;;;;14.23;53.57;93662.81;4954664;28;20265;-92
2022/12/25 01:19:41;;;;;;;2.10;1.75;;;;;;;14.21;53.57;93654.38;4954278;28;20043;-92
2022/12/25 01:22:06;;;;;;;1.88;1.63;;;;;;;14.21;53.70;93663.28;4970090;28;20129;-91
2022/12/25 01:24:32;;;;;;;3.75;2.10;;;;;;;14.19;53.42;93649.41;4970670;28;20508;-91
2022/12/25 01:26:57;;;;;;;3.45;2.00;;;;;;;14.21;53.55;93652.41;4954676;28;20054;-88
2022/12/25 01:29:23;;;;;;;3.67;2.05;;;;;;;14.22;53.41;93645.75;4934757;28;20046;-89
2022/12/25 01:31:48;;;;;;;3.47;1.75;;;;;;;14.21;53.52;93646.22;4973167;28;20039;-92
2022/12/25 01:34:13;;;;;;;3.88;2.10;;;;;;;14.21;53.33;93646.22;4957614;28;20046;-90
2022/12/25 01:36:39;;;;;;;2.95;1.88;;;;;;;14.20;53.43;93645.47;4935393;29;20043;-86
2022/12/25 01:39:04;;;;;;;2.78;1.95;;;;;;;14.20;53.17;93637.31;4963079;28;20054;-90
2022/12/25 01:41:30;;;;;;;2.63;1.83;;;;;;;14.19;53.84;93640.50;4954243;28;20709;-90
2022/12/25 01:44:14;;;;;;;2.13;1.70;;;;;;;14.20;53.66;93631.88;4953297;28;20050;-91
2022/12/25 01:46:40;;;;;;;2.50;2.03;;;;;;;14.17;53.77;93621.19;4970778;28;20050;-90
2022/12/25 01:49:07;;;;;;;2.63;1.98;;;;;;;14.16;53.46;93612.31;4953526;28;20046;-90
2022/12/25 01:51:36;;;;;;;2.83;1.88;;;;;;;14.16;53.62;93617.00;4950549;28;20043;-91
2022/12/25 01:54:04;;;;;;;2.95;2.08;;;;;;;14.17;53.91;93615.78;4970318;28;20050;-88
2022/12/25 01:56:29;;;;;;;2.65;1.88;;;;;;;14.16;54.00;93615.03;4953073;28;20122;-90
2022/12/25 01:58:55;;;;;;;2.58;1.92;;;;;;;14.20;53.56;93620.25;4953941;28;20030;-87
2022/12/25 02:01:20;;;;;;;2.20;1.85;;;;;;;14.17;53.74;93618.50;4936972;28;20059;-91
2022/12/25 02:03:46;;;;;;;3.28;2.00;;;;;;;14.21;53.58;93617.06;4950637;28;20035;-90
2022/12/25 02:06:11;;;;;;;2.83;2.10;;;;;;;14.18;53.30;93612.56;4985133;28;20046;-89
2022/12/25 02:08:36;;;;;;;2.67;2.05;;;;;;;14.17;53.61;93616.50;4937463;28;20463;-88
2022/12/25 02:11:02;;;;;;;5.00;1.90;;;;;;;14.21;53.34;93611.63;4953567;28;20513;-90
2022/12/25 02:13:27;;;;;;;2.20;1.60;;;;;;;14.17;53.66;93605.63;4952486;28;20042;-90
2022/12/25 02:16:08;;;;;;;3.25;1.90;;;;;;;14.18;53.59;93603.66;4969352;28;20493;-86
2022/12/25 02:18:42;;;;;;;3.20;1.88;;;;;;;14.20;53.44;93607.41;4946069;28;20049;-90
2022/12/25 02:21:08;;;;;;;2.47;1.75;;;;;;;14.21;53.37;93611.63;4949740;28;20050;-91
2022/12/25 02:23:46;;;;;;;2.13;1.50;;;;;;;14.17;53.54;93616.50;4969982;28;20042;-92
2022/12/25 02:26:32;;;;;;;4.32;2.00;;;;;;;14.15;53.67;93610.81;4969076;28;20039;-91
2022/12/25 02:29:23;;;;;;;2.50;1.95;;;;;;;14.18;53.80;93614.53;4971060;28;20062;-90
2022/12/25 02:32:00;;;;;;;3.40;2.03;;;;;;;14.17;53.55;93613.78;4946113;28;20043;-90
2022/12/25 02:34:32;;;;;;;3.40;2.15;;;;;;;14.16;53.31;93609.59;4935276;28;20039;-92
2022/12/25 02:37:06;;;;;;;2.67;2.00;;;;;;;14.18;53.63;93617.25;4934643;29;20042;-90
2022/12/25 02:40:02;;;;;;;5.85;2.42;;;;;;;14.17;53.62;93611.06;4969090;28;20071;-89
2022/12/25 03:07:23;;;;;;;1.90;1.65;;;;;;;14.20;52.83;93623.72;4967803;28;20117;-91
2022/12/25 03:12:42;;;;;;;3.35;2.22;;;;;;;14.14;53.47;93636.50;4955137;28;20049;-91
2022/12/25 03:17:53;;;;;;;3.72;1.90;;;;;;;14.17;53.66;93632.09;4955358;28;20058;-91
2022/12/25 03:28:30;;;;;;;2.65;2.00;;;;;;;14.19;53.43;93624.19;4949274;28;20047;-87
2022/12/25 03:31:21;;;;;;;2.15;1.75;;;;;;;14.22;53.36;93609.66;4985090;28;20035;-90
2022/12/25 04:37:59;;;;;;;2.72;2.00;;;;;;;14.15;53.48;93607.34;4972210;28;20531;-90
2022/12/25 04:40:25;;;;;;;2.10;1.90;;;;;;;14.16;53.30;93614.28;4951132;28;20262;-87
2022/12/25 04:42:50;;;;;;;3.25;2.00;;;;;;;14.14;53.29;93616.72;4968474;28;20406;-88
2022/12/25 04:45:16;;;;;;;1.60;1.40;;;;;;;14.12;53.20;93617.19;4985071;28;20102;-90
2022/12/25 04:47:41;;;;;;;2.40;1.92;;;;;;;14.14;53.28;93608.56;4951325;28;20098;-91
2022/12/25 04:50:07;;;;;;;2.28;1.85;;;;;;;14.16;53.24;93603.41;4966442;28;20118;-90
2022/12/25 04:52:36;;;;;;;2.38;1.83;;;;;;;14.17;53.17;93604.91;4955453;28;20039;-92
2022/12/25 04:55:03;;;;;;;3.40;2.15;;;;;;;14.15;53.25;93597.22;4952116;28;20516;-91
2022/12/25 04:57:28;;;;;;;2.50;1.80;;;;;;;14.16;53.26;93604.16;4969754;28;20055;-92
2022/12/25 04:59:54;;;;;;;2.92;2.08;;;;;;;14.16;53.05;93601.44;4939823;28;20500;-91
2022/12/25 05:02:19;;;;;;;3.95;2.00;;;;;;;14.15;53.25;93599.94;4953674;28;20050;-88
2022/12/25 05:04:45;;;;;;;2.85;1.90;;;;;;;14.14;53.53;93601.16;4945816;28;20046;-87
2022/12/25 05:07:10;;;;;;;2.25;1.80;;;;;;;14.12;52.86;93600.13;4968027;28;20050;-88
2022/12/25 05:09:40;;;;;;;3.13;1.55;;;;;;;14.12;53.36;93590.00;4961323;28;20047;-89
2022/12/25 05:12:07;;;;;;;3.28;2.00;;;;;;;14.14;53.46;93589.53;4938282;28;20105;-90
2022/12/25 05:14:33;;;;;;;3.13;2.08;;;;;;;14.14;52.92;93593.00;4937343;28;20479;-92
2022/12/25 05:16:58;;;;;;;3.40;1.90;;;;;;;14.14;53.03;93587.56;4937135;28;20047;-89
2022/12/25 05:19:24;;;;;;;2.28;1.65;;;;;;;14.15;53.19;93586.34;4968721;28;20460;-93
2022/12/25 05:21:49;;;;;;;2.47;1.77;;;;;;;14.15;53.12;93585.59;4925873;28;20058;-93
2022/12/25 05:24:15;;;;;;;2.17;1.98;;;;;;;14.17;53.25;93592.03;4968508;28;20094;-93
2022/12/25 05:26:40;;;;;;;2.28;1.98;;;;;;;14.14;53.22;93597.69;4969499;28;20129;-90
2022/12/25 05:29:05;;;;;;;1.92;1.48;;;;;;;14.14;53.19;93595.72;4952789;28;20054;-91
2022/12/25 05:31:31;;;;;;;2.45;1.75;;;;;;;14.15;53.18;93597.22;4920983;28;20046;-88
2022/12/25 05:33:56;;;;;;;3.85;2.13;;;;;;;14.14;53.32;93593.00;4984807;28;20051;-87
2022/12/25 05:36:21;;;;;;;1.80;1.50;;;;;;;14.18;52.97;93598.22;4936702;28;20043;-92
2022/12/25 05:38:47;;;;;;;3.83;1.98;;;;;;;14.16;52.88;93604.16;4935315;28;20054;-91
2022/12/25 05:41:12;;;;;;;2.47;1.77;;;;;;;14.16;52.98;93601.44;4945932;28;20501;-91
2022/12/25 05:43:38;;;;;;;3.78;2.22;;;;;;;14.13;53.21;93601.63;4936097;28;20058;-93
2022/12/25 05:46:05;;;;;;;3.47;2.20;;;;;;;14.14;53.21;93601.16;4984630;28;20038;-91
2022/12/25 05:48:31;;;;;;;2.83;1.98;;;;;;;14.15;53.38;93610.06;4985489;28;20046;-89
2022/12/25 05:50:56;;;;;;;3.22;1.88;;;;;;;14.15;53.04;93610.06;4970147;28;20035;-93
2022/12/25 05:53:22;;;;;;;2.15;1.55;;;;;;;14.17;52.77;93607.63;4953062;28;20050;-92
2022/12/25 05:55:47;;;;;;;2.88;1.98;;;;;;;14.16;53.14;93615.03;4969535;28;20507;-90
2022/12/25 05:58:13;;;;;;;2.33;2.08;;;;;;;14.15;53.21;93615.50;4939448;28;20027;-91
2022/12/25 06:00:39;;;;;;;2.80;2.00;;;;;;;14.13;53.12;93617.94;4973500;28;20046;-88
2022/12/25 06:03:04;;;;;;;3.00;2.00;;;;;;;14.14;53.07;93603.88;4949663;28;20039;-89
2022/12/25 06:05:30;;;;;;;2.10;1.67;;;;;;;14.14;53.23;93616.72;4970370;28;20035;-92
2022/12/25 06:07:55;;;;;;;2.15;1.70;;;;;;;14.15;53.22;93613.53;4954121;28;20046;-91
2022/12/25 06:10:21;;;;;;;2.75;2.20;;;;;;;14.17;53.02;93619.22;4933259;28;20524;-91
2022/12/25 06:12:46;;;;;;;2.88;1.80;;;;;;;14.15;53.04;93618.97;4985882;28;20039;-92
2022/12/25 06:15:11;;;;;;;2.85;1.80;;;;;;;14.14;53.04;93622.16;4968991;28;20049;-90
2022/12/25 06:17:37;;;;;;;2.05;1.73;;;;;;;14.13;53.09;93626.84;4953380;28;20046;-91
2022/12/25 06:20:02;;;;;;;2.67;1.95;;;;;;;14.13;53.07;93626.09;4950114;28;20044;-87
2022/12/25 06:22:31;;;;;;;2.72;2.00;;;;;;;14.10;53.09;93633.22;4969397;28;20042;-92
2022/12/25 06:24:56;;;;;;;3.35;2.05;;;;;;;14.11;53.22;93636.69;4969196;28;20519;-89
2022/12/25 06:27:22;;;;;;;3.50;1.95;;;;;;;14.10;53.07;93630.50;4951400;28;20051;-91
2022/12/25 06:29:47;;;;;;;3.03;2.35;;;;;;;14.12;53.15;93632.75;4934563;29;20116;-92
2022/12/25 06:32:13;;;;;;;2.40;1.75;;;;;;;14.12;53.21;93630.78;4962462;28;20500;-92
2022/12/25 06:34:38;;;;;;;2.90;1.90;;;;;;;14.12;53.04;93636.22;4970276;28;20039;-92
2022/12/25 06:37:04;;;;;;;3.22;2.22;;;;;;;14.15;52.75;93639.97;4969328;28;20051;-88
2022/12/25 06:39:29;;;;;;;3.05;2.28;;;;;;;14.13;53.01;93636.97;4968779;28;20075;-91
2022/12/25 06:41:54;;;;;;;2.63;1.88;;;;;;;14.14;52.74;93643.91;4949913;28;20169;-94
2022/12/25 06:44:20;;;;;;;2.58;1.88;;;;;;;14.16;52.79;93644.94;4934432;28;20567;-90
2022/12/25 06:46:45;;;;;;;2.72;1.85;;;;;;;14.16;52.98;93641.47;4933603;29;20074;-87
2022/12/25 06:49:11;;;;;;;3.47;2.13;;;;;;;14.17;52.89;93643.69;4963645;28;20047;-92
2022/12/25 06:51:36;;;;;;;2.95;2.03;;;;;;;14.15;52.86;93645.41;4952970;28;20097;-89
2022/12/25 06:54:02;;;;;;;2.95;1.90;;;;;;;14.15;53.24;93637.25;4938413;29;20090;-90
2022/12/25 06:56:28;;;;;;;2.63;1.95;;;;;;;14.13;53.09;93639.69;4953583;28;20039;-91
2022/12/25 06:58:57;;;;;;;4.32;2.17;;;;;;;14.12;53.16;93643.63;4965922;28;20094;-87
2022/12/25 07:01:27;;;;;;;3.92;2.55;;;;;;;14.14;53.16;93646.63;4951729;28;20867;-92
2022/12/25 07:03:55;;;;;;;2.92;2.00;;;;;;;14.11;53.04;93644.84;4949769;28;20075;-90
2022/12/25 07:06:20;;;;;;;2.10;1.77;;;;;;;14.10;52.95;93641.38;4984226;28;20144;-90
2022/12/25 07:08:45;;;;;;;2.70;1.95;;;;;;;14.08;52.87;93644.56;4946598;28;20496;-91
2022/12/25 07:11:11;;;;;;;2.17;1.80;;;;;;;14.11;53.04;93648.31;4968594;28;20039;-86
2022/12/25 07:13:36;;;;;;;2.33;1.80;;;;;;;14.08;53.17;93639.16;4949566;28;20094;-90
2022/12/25 07:16:02;;;;;;;2.15;1.75;;;;;;;14.10;53.31;93637.91;4968672;28;20090;-87
2022/12/25 07:18:28;;;;;;;2.72;2.28;;;;;;;14.13;53.19;93637.72;4951089;28;20054;-92
2022/12/25 07:20:54;;;;;;;3.47;2.00;;;;;;;14.10;52.75;93638.66;4933203;29;20414;-91
2022/12/25 07:23:20;;;;;;;2.50;1.95;;;;;;;14.11;53.14;93648.31;4967812;28;20038;-90
2022/12/25 07:25:54;;;;;;;2.55;2.00;;;;;;;14.12;53.41;93646.34;4953492;28;20035;-92
2022/12/25 07:28:19;;;;;;;2.40;2.08;;;;;;;14.12;52.86;93652.53;4943985;28;20134;-87
2022/12/25 07:30:44;;;;;;;2.22;2.03;;;;;;;14.12;52.80;93660.69;4943258;28;20454;-91
2022/12/25 07:33:10;;;;;;;2.35;1.73;;;;;;;14.13;53.02;93664.16;4963018;28;20047;-92
2022/12/25 07:35:36;;;;;;;3.13;1.80;;;;;;;14.13;53.00;93661.44;4968883;28;20046;-90
2022/12/25 07:38:01;;;;;;;3.13;1.88;;;;;;;14.14;53.03;93669.13;4955465;28;20051;-87
2022/12/25 07:40:26;;;;;;;2.85;1.88;;;;;;;14.15;53.03;93667.16;4955625;28;20063;-87
2022/12/25 07:42:52;;;;;;;2.42;1.48;;;;;;;14.15;52.96;93675.31;4956792;28;20049;-91
2022/12/25 07:45:17;;;;;;;3.03;1.95;;;;;;;14.15;52.70;93673.34;4955114;28;20066;-89
2022/12/25 07:47:43;;;;;;;3.42;2.10;;;;;;;14.13;53.08;93667.63;4953424;28;20047;-88
2022/12/25 07:50:09;;;;;;;2.80;2.10;;;;;;;14.13;53.04;93672.31;4976893;28;20050;-92
2022/12/25 07:52:34;;;;;;;3.30;2.13;;;;;;;14.13;52.90;93662.19;4955634;28;20042;-91
2022/12/25 07:54:59;;;;;;;2.78;1.98;;;;;;;14.13;53.14;93677.75;4956732;28;20039;-88
2022/12/25 07:57:25;;;;;;;3.50;2.17;;;;;;;14.11;52.89;93677.47;4954812;28;20047;-92
2022/12/25 07:59:50;;;;;;;3.10;2.00;;;;;;;14.10;52.61;93684.13;4955949;28;20043;-92
2022/12/25 08:02:16;;;;;;;4.22;2.22;;;;;;;14.11;52.81;93683.66;4952172;28;20047;-93
2022/12/25 08:04:41;;;;;;;3.53;2.30;;;;;;;14.10;53.15;93684.13;4982150;28;20038;-91
2022/12/25 08:07:06;;;;;;;2.47;1.80;;;;;;;14.13;52.91;93681.22;4936338;28;20552;-90
2022/12/25 08:09:32;;;;;;;2.92;2.00;;;;;;;14.14;53.07;93674.56;4952451;28;20055;-92
2022/12/25 08:11:57;;;;;;;2.95;1.85;;;;;;;14.11;53.04;93685.63;4957318;28;20042;-93
2022/12/25 08:14:23;;;;;;;2.28;1.80;;;;;;;14.14;52.79;93679.25;4951770;28;20039;-88
2022/12/25 08:16:48;;;;;;;3.70;2.08;;;;;;;14.13;52.88;93675.03;4955468;28;20437;-88
2022/12/25 08:19:13;;;;;;;2.72;1.73;;;;;;;14.14;52.97;93669.13;4954936;28;20101;-92
2022/12/25 08:21:39;;;;;;;2.40;1.80;;;;;;;14.15;53.00;93672.59;4953749;28;20045;-88
2022/12/25 08:24:04;;;;;;;2.15;1.83;;;;;;;14.12;53.28;93677.00;4937099;28;20049;-90
2022/12/25 08:26:30;;;;;;;3.38;1.92;;;;;;;14.12;52.91;93673.53;4918814;28;20126;-87
2022/12/25 08:28:56;;;;;;;1.77;1.52;;;;;;;14.13;52.93;93670.34;4935080;29;20047;-92
2022/12/25 08:31:24;;;;;;;2.60;1.73;;;;;;;14.12;53.14;93670.81;4968880;28;20059;-94
2022/12/25 08:33:50;;;;;;;2.00;1.77;;;;;;;14.14;52.69;93668.38;4950851;28;20619;-89
2022/12/25 08:36:15;;;;;;;3.55;1.80;;;;;;;14.14;53.09;93668.38;4976258;28;20038;-91
2022/12/25 08:38:41;;;;;;;2.53;1.83;;;;;;;14.18;52.80;93671.63;4918215;29;20546;-88
2022/12/25 08:41:06;;;;;;;2.03;1.85;;;;;;;14.15;52.85;93665.19;4980068;28;20098;-88
2022/12/25 08:43:32;;;;;;;3.90;1.92;;;;;;;14.18;52.67;93666.19;4935123;29;20071;-90
2022/12/25 08:45:57;;;;;;;2.53;2.15;;;;;;;14.19;52.83;93659.53;4985763;28;20049;-90
2022/12/25 08:48:23;;;;;;;3.10;1.88;;;;;;;14.19;52.80;93656.81;4946336;28;20058;-87
2022/12/25 08:50:48;;;;;;;2.20;1.63;;;;;;;14.16;52.88;93658.53;4967748;28;20053;-90
2022/12/25 08:53:14;;;;;;;1.90;1.60;;;;;;;14.15;52.72;93654.31;4918237;28;20137;-92
2022/12/25 08:55:39;;;;;;;2.47;1.90;;;;;;;14.13;52.52;93662.19;4969473;28;20046;-90
2022/12/25 08:58:05;;;;;;;2.70;1.80;;;;;;;14.13;52.73;93659.47;4940931;28;20047;-91
2022/12/25 09:00:31;;;;;;;2.03;1.70;;;;;;;14.17;52.57;93664.69;4954769;28;20129;-90
2022/12/25 09:02:56;;;;;;;2.08;1.80;;;;;;;14.13;52.91;93658.72;4954159;28;20047;-93
2022/12/25 09:05:22;;;;;;;3.25;1.88;;;;;;;14.17;52.68;93670.13;4970484;28;20511;-91
2022/12/25 09:07:47;;;;;;;4.13;2.15;;;;;;;14.17;52.88;93672.84;4970311;28;20043;-92
2022/12/25 09:10:12;;;;;;;2.20;1.80;;;;;;;14.15;52.82;93669.88;4970461;28;20041;-93
2022/12/25 09:12:38;;;;;;;2.05;1.83;;;;;;;14.16;52.90;93668.66;4935521;29;20054;-91
2022/12/25 09:15:04;;;;;;;3.40;1.92;;;;;;;14.17;52.56;93662.72;4982909;28;20369;-91
2022/12/25 09:17:29;;;;;;;2.08;1.85;;;;;;;14.15;52.55;93673.34;4954101;28;20501;-91
2022/12/25 09:19:54;;;;;;;3.03;1.70;;;;;;;14.18;52.97;93674.34;4935282;29;20061;-91
2022/12/25 09:22:20;;;;;;;2.28;1.67;;;;;;;14.16;53.00;93669.38;4969933;28;20307;-91
2022/12/25 09:24:45;;;;;;;2.30;1.75;;;;;;;14.18;52.83;93663.47;4938661;28;20042;-92
2022/12/25 09:27:11;;;;;;;2.63;1.80;;;;;;;14.16;52.98;93666.69;4953986;28;20046;-91
2022/12/25 09:29:37;;;;;;;2.67;1.88;;;;;;;14.14;52.91;93671.09;4954434;28;20046;-92
2022/12/25 09:32:03;;;;;;;3.45;2.47;;;;;;;14.14;52.79;93663.69;4951752;28;20036;-92
2022/12/25 09:34:29;;;;;;;2.40;1.85;;;;;;;14.17;52.88;93654.56;4961441;28;20659;-93
2022/12/25 09:36:54;;;;;;;3.20;2.08;;;;;;;14.18;52.85;93649.88;4985660;28;20055;-90
2022/12/25 09:39:20;;;;;;;3.90;2.05;;;;;;;14.16;52.98;93652.34;4954306;28;20043;-92
2022/12/25 09:41:53;;;;;;;2.60;2.00;;;;;;;14.17;52.70;93651.84;4954426;28;20042;-93
2022/12/25 09:44:28;;;;;;;2.78;2.00;;;;;;;14.21;52.77;93649.69;4969439;28;20126;-91
2022/12/25 09:46:57;;;;;;;3.85;2.17;;;;;;;14.17;52.53;93637.50;4950683;28;20524;-91
2022/12/25 09:49:41;;;;;;;2.45;1.73;;;;;;;14.22;52.51;93631.41;4969208;28;20134;-90
2022/12/25 09:52:14;;;;;;;2.35;1.80;;;;;;;14.21;52.75;93635.34;4934740;28;20067;-90
2022/12/25 09:54:43;;;;;;;2.63;1.98;;;;;;;14.23;52.56;93632.91;4954304;28;20043;-88
2022/12/25 09:57:10;;;;;;;3.25;2.08;;;;;;;14.19;52.75;93632.34;4970895;28;20050;-91
2022/12/25 09:59:35;;;;;;;3.70;1.90;;;;;;;14.18;52.96;93642.47;4947743;28;20134;-91
2022/12/25 10:02:19;;;;;;;2.03;1.50;;;;;;;14.18;52.65;93637.03;4966188;28;20051;-88
2022/12/25 10:04:55;;;;;;;3.40;2.38;;;;;;;14.22;52.49;93639.56;4980233;28;20501;-91
2022/12/25 10:07:27;;;;;;;2.80;1.85;;;;;;;14.20;52.87;93636.56;4969083;28;20089;-91
2022/12/25 10:10:02;;;;;;;3.63;2.67;;;;;;;14.24;52.62;93628.94;4953738;28;20046;-93
2022/12/25 10:13:00;;;;;;;3.30;2.40;;;;;;;14.23;52.28;93624.75;4969360;28;20042;-89
2022/12/25 10:15:37;;;;;;;1.98;1.70;;;;;;;14.24;52.78;93618.81;4953121;28;20190;-90
2022/12/25 10:18:27;;;;;;;2.25;1.75;;;;;;;14.27;52.55;93625.28;4954696;28;20081;-87
2022/12/25 10:20:56;;;;;;;2.17;1.52;;;;;;;14.25;52.61;93614.13;4966081;28;20109;-89
2022/12/25 10:23:25;;;;;;;2.75;2.05;;;;;;;14.25;52.46;93604.00;4952852;28;20069;-92
2022/12/25 10:25:51;;;;;;;4.53;2.17;;;;;;;14.27;52.56;93604.28;4969807;28;20034;-92
2022/12/25 10:28:27;;;;;;;2.97;1.90;;;;;;;14.25;52.58;93592.38;4937673;28;20034;-91
2022/12/25 10:30:53;;;;;;;1.98;1.77;;;;;;;14.23;52.10;93597.56;4934523;29;20327;-91
2022/12/25 10:33:20;;;;;;;2.03;1.70;;;;;;;14.25;52.59;93597.81;4968616;28;20043;-90
2022/12/25 10:35:45;;;;;;;2.08;1.67;;;;;;;14.25;52.24;93603.25;4953329;28;20484;-90
2022/12/25 10:38:13;;;;;;;2.40;1.75;;;;;;;14.26;52.63;93610.19;4936876;28;20034;-92
2022/12/25 10:40:43;;;;;;;2.30;1.90;;;;;;;14.28;52.51;93608.50;4937323;28;20691;-92
2022/12/25 10:43:18;;;;;;;2.42;1.85;;;;;;;14.32;52.39;93614.44;4967954;28;20102;-87
2022/12/25 10:45:44;;;;;;;2.15;1.90;;;;;;;14.30;52.31;93621.59;4969175;28;20097;-88
2022/12/25 10:48:21;;;;;;;2.42;1.85;;;;;;;14.29;52.63;93609.97;4965401;28;20046;-87
2022/12/25 10:50:47;;;;;;;2.92;2.20;;;;;;;14.24;52.58;93602.50;4948256;28;20047;-90
2022/12/25 10:53:18;;;;;;;2.58;1.80;;;;;;;14.23;52.95;93605.72;4980040;28;20039;-90
2022/12/25 10:56:00;;;;;;;2.83;1.98;;;;;;;14.27;52.56;93598.84;4949952;28;20047;-89
2022/12/25 10:58:26;;;;;;;2.80;2.03;;;;;;;14.23;52.59;93605.72;4967151;28;20035;-88
2022/12/25 11:00:55;;;;;;;3.28;1.90;;;;;;;14.23;52.44;93603.72;4949562;28;20058;-86
2022/12/25 11:03:22;;;;;;;2.67;2.10;;;;;;;14.29;52.69;93601.81;4951002;28;20125;-89
2022/12/25 11:05:50;;;;;;;2.10;1.90;;;;;;;14.29;52.23;93593.66;4949243;28;20481;-89
2022/12/25 11:08:21;;;;;;;2.25;1.70;;;;;;;14.32;52.23;93600.09;4984092;28;20058;-85
2022/12/25 11:10:51;;;;;;;;;;;;;;;14.34;52.23;93592.97;4949221;28;20039;-87
2022/12/25 11:13:18;;;;;;;2.50;1.90;;;;;;;14.26;52.49;93585.72;4967310;28;19918;-87
2022/12/25 11:15:44;;;;;;;2.40;1.98;;;;;;;14.26;52.40;93583.00;4944078;28;20557;-87
2022/12/25 11:18:23;;;;;;;2.10;1.90;;;;;;;14.28;52.34;93575.13;4967658;28;20039;-87
2022/12/25 11:20:53;;;;;;;2.03;1.77;;;;;;;14.29;52.54;93573.88;4943136;28;20050;-85
2022/12/25 11:23:19;;;;;;;2.00;1.80;;;;;;;14.27;52.48;93577.09;4959144;28;20393;-89
2022/12/25 11:25:58;;;;;;;3.28;2.10;;;;;;;14.29;52.46;93573.88;4945237;28;20074;-85
2022/12/25 11:28:24;;;;;;;2.92;1.60;;;;;;;14.29;52.51;93568.44;4977490;28;20133;-90
2022/12/25 11:30:52;;;;;;;3.33;1.98;;;;;;;14.27;52.48;93573.63;4933611;29;20050;-87
2022/12/25 11:33:17;;;;;;;2.85;1.90;;;;;;;14.29;52.45;93558.28;4953516;28;20035;-85
2022/12/25 11:35:48;;;;;;;4.22;2.10;;;;;;;14.30;52.27;93562.50;4948393;28;20556;-88
2022/12/25 11:38:13;;;;;;;2.85;2.20;;;;;;;14.32;52.09;93565.50;4968290;28;20035;-86
2022/12/25 11:40:43;;;;;;;3.45;1.88;;;;;;;14.30;52.29;93559.03;4952181;28;20046;-90
2022/12/25 11:43:13;;;;;;;4.03;1.93;;;;;;;14.30;52.30;93556.31;4967161;28;20046;-89
2022/12/25 11:45:44;;;;;;;3.00;1.93;;;;;;;14.31;52.45;93549.66;4968704;28;20047;-90
2022/12/25 11:48:11;;;;;;;3.38;2.42;;;;;;;14.30;52.30;93548.16;4967370;28;20284;-90
2022/12/25 11:50:42;;;;;;;3.30;2.17;;;;;;;14.30;52.45;93542.72;4952027;28;20061;-89
2022/12/25 11:53:20;;;;;;;2.13;1.85;;;;;;;14.32;52.33;93529.41;4934593;28;20150;-87
2022/12/25 11:55:55;;;;;;;2.60;1.60;;;;;;;14.33;52.25;93534.34;4949420;28;20043;-88
2022/12/25 11:58:32;;;;;;;2.58;1.95;;;;;;;14.31;52.59;93527.91;4983868;28;20039;-88
2022/12/25 12:00:58;;;;;;;2.75;2.05;;;;;;;14.32;52.37;93532.13;4968739;28;20035;-85
2022/12/25 12:03:28;;;;;;;3.45;2.03;;;;;;;14.35;52.33;93520.28;4935433;28;20588;-90
2022/12/25 12:05:57;;;;;;;4.07;2.15;;;;;;;14.32;52.72;93523.97;4949101;28;20047;-87
2022/12/25 12:08:22;;;;;;;2.42;2.22;;;;;;;14.28;52.45;93524.19;4967788;28;20070;-88
2022/12/25 12:11:17;;;;;;;2.10;1.80;;;;;;;14.29;52.54;93509.34;4948970;28;20066;-87
2022/12/25 12:14:01;;;;;;;2.80;2.30;;;;;;;14.28;52.51;93505.16;4967734;28;20059;-89
2022/12/25 12:16:26;;;;;;;2.75;1.85;;;;;;;14.26;52.82;93496.00;4967628;28;20039;-89
2022/12/25 12:18:52;;;;;;;2.47;1.88;;;;;;;14.26;52.41;93496.00;4951454;28;20069;-85
2022/12/25 12:21:22;;;;;;;3.33;2.25;;;;;;;14.28;52.61;93488.84;4934021;28;20031;-87
2022/12/25 12:24:02;;;;;;;3.20;1.90;;;;;;;14.27;52.63;93490.06;4968064;28;20046;-90
2022/12/25 12:26:29;;;;;;;2.05;1.80;;;;;;;14.30;52.23;93491.06;4970695;28;20187;-88
2022/12/25 12:28:59;;;;;;;3.30;1.98;;;;;;;14.30;52.59;93494.53;4971725;28;20042;-90
2022/12/25 12:31:34;;;;;;;3.63;2.50;;;;;;;14.27;52.46;93483.91;4953191;28;20074;-89
2022/12/25 12:33:59;;;;;;;1.80;1.60;;;;;;;14.29;52.24;93478.72;4951304;28;20342;-87
2022/12/25 12:36:28;;;;;;;3.33;2.00;;;;;;;14.29;52.34;93478.72;4944800;28;20501;-87
2022/12/25 12:38:54;;;;;;;2.55;1.92;;;;;;;14.32;52.29;93475.00;4955657;28;20050;-87
2022/12/25 12:41:21;;;;;;;3.15;1.67;;;;;;;14.31;52.16;93477.00;4954271;28;20074;-88
2022/12/25 12:43:52;;;;;;;2.30;1.95;;;;;;;14.28;52.54;93475.25;4951607;28;20062;-86
2022/12/25 12:46:26;;;;;;;;;;;;;;;14.35;52.39;93469.34;4961597;28;20081;-88
2022/12/25 12:48:52;;;;;;;1.92;1.73;;;;;;;14.26;52.14;93469.56;4970682;28;19949;-88
2022/12/25 12:51:32;;;;;;;4.40;1.88;;;;;;;14.27;52.54;93467.56;4954345;28;20050;-89
2022/12/25 12:54:17;;;;;;;2.95;1.80;;;;;;;14.27;52.32;93471.03;4954998;28;20571;-89
2022/12/25 12:56:55;;;;;;;3.38;1.98;;;;;;;14.29;52.31;93470.56;4970572;28;20058;-89
2022/12/25 12:59:21;;;;;;;2.85;1.92;;;;;;;14.27;52.49;93462.88;4954229;28;20046;-91
2022/12/25 13:01:51;;;;;;;2.90;2.03;;;;;;;14.30;52.41;93469.31;4954659;28;20090;-90
2022/12/25 13:04:28;;;;;;;2.60;1.95;;;;;;;14.29;52.26;93463.13;4953926;28;20567;-89
2022/12/25 13:07:21;;;;;;;3.00;1.80;;;;;;;14.32;52.29;93467.59;4972282;28;20043;-89
2022/12/25 13:10:01;;;;;;;2.95;1.95;;;;;;;14.35;52.40;93457.72;4965621;28;20636;-89
2022/12/25 13:12:27;;;;;;;2.10;1.88;;;;;;;14.31;52.05;93463.38;4969368;28;20039;-88
2022/12/25 13:14:52;;;;;;;3.17;2.00;;;;;;;14.31;52.23;93460.66;4951447;29;20055;-90
2022/12/25 13:17:20;;;;;;;2.97;1.92;;;;;;;14.32;51.94;93455.97;4962638;28;20027;-92
2022/12/25 13:19:55;;;;;;;3.28;1.90;;;;;;;14.30;52.36;93461.91;4951093;28;20031;-88
2022/12/25 13:22:29;;;;;;;2.30;1.73;;;;;;;14.30;52.31;93464.63;4958151;28;20035;-91
2022/12/25 13:24:59;;;;;;;3.40;2.03;;;;;;;14.32;52.09;93456.72;4968376;28;20043;-88